This is the latest recevied weather packets stored in our database for station/object DH5DY-6. If no packets are shown the sender has not sent any weather packets the latest 10 day(s).
| Time | Temp. | Humidity | Pressure | Rain* | Wind** | Luminosity | Snow |
|---|---|---|---|---|---|---|---|
| 1787757734 | 23.89° C | 66% | 1014 hPa | 0 mm | - | 497 W/m² | - |
| 1787757133 | 23.33° C | 67% | 1014.1 hPa | 0 mm | - | 480 W/m² | - |
| 1787756534 | 23.33° C | 67% | 1014.1 hPa | 0 mm | - | 135 W/m² | - |
| 1787755334 | 22.78° C | 68% | 1014.5 hPa | 0 mm | - | 580 W/m² | - |
| 1787754734 | 23.33° C | 67% | 1014.5 hPa | 0 mm | - | 283 W/m² | - |
| 1787754345 | 23.33° C | 66% | 1014.5 hPa | 0 mm | - | 260 W/m² | - |
| 1787754133 | 23.33° C | 66% | 1014.5 hPa | 0 mm | - | 260 W/m² | - |
| 1787753533 | 23.33° C | 66% | 1014.5 hPa | 0 mm | - | 640 W/m² | - |
| 1787752933 | 23.33° C | 67% | 1014.5 hPa | 0 mm | - | 700 W/m² | - |
| 1787752333 | 22.78° C | 69% | 1014.6 hPa | 0 mm | - | 271 W/m² | - |
| 1787751732 | 21.67° C | 69% | 1014.9 hPa | 0 mm | - | 253 W/m² | - |
| 1787750532 | 22.22° C | 68% | 1014.8 hPa | 0 mm | - | 172 W/m² | - |
| 1787749932 | 22.78° C | 67% | 1014.8 hPa | 0 mm | - | 262 W/m² | - |
| 1787749331 | 22.78° C | 68% | 1014.7 hPa | 0 mm | - | 809 W/m² | - |
| 1787748732 | 21.67° C | 68% | 1014.7 hPa | 0 mm | - | 724 W/m² | - |
| 1787748132 | 21.67° C | 72% | 1014.8 hPa | 0 mm | - | 795 W/m² | - |
| 1787746931 | 20.56° C | 71% | 1014.9 hPa | 0 mm | - | 294 W/m² | - |
| 1787746331 | 20.56° C | 72% | 1014.9 hPa | 0 mm | - | 710 W/m² | - |
| 1787745132 | 20.56° C | 74% | 1015.2 hPa | 0 mm | - | 522 W/m² | - |
| 1787744532 | 20° C | 74% | 1015.3 hPa | 0 mm | - | 239 W/m² | - |
| 1787743930 | 20° C | 75% | 1015.3 hPa | 0 mm | - | 204 W/m² | - |
| 1787743331 | 20° C | 75% | 1015.2 hPa | 0 mm | - | 302 W/m² | - |
| 1787742731 | 19.44° C | 76% | 1015.3 hPa | 0 mm | - | 879 W/m² | - |
| 1787741531 | 18.89° C | 79% | 1015.4 hPa | 0 mm | - | 320 W/m² | - |
| 1787740930 | 18.89° C | 80% | 1015.3 hPa | 0 mm | - | 274 W/m² | - |
* Rain latest hour (hover to see other rain measurements)
** Current wind speed in m/s (hover to see current wind gust speed)